sensor_id;sensor_type;location;lat;lon;timestamp;pressure;altitude;pressure_sealevel;temperature;humidity
57000;BME280;42891;50.006;21.964;2023-04-19T00:02:28;50954.59;;;-146.02;58.90
57000;BME280;42891;50.006;21.964;2023-04-19T00:06:29;50946.59;;;-146.02;58.89
57000;BME280;42891;50.006;21.964;2023-04-19T00:10:29;50918.53;;;-146.02;58.96
57000;BME280;42891;50.006;21.964;2023-04-19T00:14:30;50950.59;;;-146.02;58.85
57000;BME280;42891;50.006;21.964;2023-04-19T00:18:30;50940.56;;;-146.02;58.86
57000;BME280;42891;50.006;21.964;2023-04-19T00:22:31;50914.53;;;-146.02;59.16
57000;BME280;42891;50.006;21.964;2023-04-19T00:26:31;50926.53;;;-146.02;59.09
57000;BME280;42891;50.006;21.964;2023-04-19T00:30:31;50952.59;;;-146.02;59.30
57000;BME280;42891;50.006;21.964;2023-04-19T00:34:31;50976.63;;;-146.02;59.75
57000;BME280;42891;50.006;21.964;2023-04-19T00:38:32;50962.63;;;-146.02;59.66
57000;BME280;42891;50.006;21.964;2023-04-19T00:42:32;50966.63;;;-146.02;59.54
57000;BME280;42891;50.006;21.964;2023-04-19T00:46:32;50936.56;;;-146.02;59.64
57000;BME280;42891;50.006;21.964;2023-04-19T00:50:33;50918.53;;;-146.02;60.08
57000;BME280;42891;50.006;21.964;2023-04-19T00:54:35;50940.56;;;-146.02;60.14
57000;BME280;42891;50.006;21.964;2023-04-19T00:58:37;50958.59;;;-146.02;60.40
57000;BME280;42891;50.006;21.964;2023-04-19T01:02:38;50956.59;;;-146.02;60.44
57000;BME280;42891;50.006;21.964;2023-04-19T01:06:39;50952.59;;;-146.02;60.36
57000;BME280;42891;50.006;21.964;2023-04-19T01:10:40;50920.53;;;-146.02;60.66
57000;BME280;42891;50.006;21.964;2023-04-19T01:14:40;50934.56;;;-146.02;61.01
57000;BME280;42891;50.006;21.964;2023-04-19T01:18:41;50984.66;;;-146.02;61.15
57000;BME280;42891;50.006;21.964;2023-04-19T01:22:41;50982.66;;;-146.02;61.19
57000;BME280;42891;50.006;21.964;2023-04-19T01:26:42;50940.56;;;-146.02;61.34
57000;BME280;42891;50.006;21.964;2023-04-19T01:30:42;50946.59;;;-146.02;61.85
57000;BME280;42891;50.006;21.964;2023-04-19T01:34:42;50996.69;;;-146.02;62.02
57000;BME280;42891;50.006;21.964;2023-04-19T01:38:43;50934.56;;;-146.02;62.24
57000;BME280;42891;50.006;21.964;2023-04-19T01:42:43;50934.56;;;-146.02;62.52
57000;BME280;42891;50.006;21.964;2023-04-19T01:46:43;50954.59;;;-146.02;62.57
57000;BME280;42891;50.006;21.964;2023-04-19T01:50:44;50966.63;;;-146.02;62.98
57000;BME280;42891;50.006;21.964;2023-04-19T01:54:44;50936.56;;;-146.02;63.08
57000;BME280;42891;50.006;21.964;2023-04-19T01:58:44;50966.63;;;-146.02;63.47
57000;BME280;42891;50.006;21.964;2023-04-19T02:02:45;50968.63;;;-146.02;63.43
57000;BME280;42891;50.006;21.964;2023-04-19T02:06:45;50964.63;;;-146.02;63.59
57000;BME280;42891;50.006;21.964;2023-04-19T02:10:45;50962.63;;;-146.02;63.87
57000;BME280;42891;50.006;21.964;2023-04-19T02:14:46;50944.59;;;-146.02;63.86
57000;BME280;42891;50.006;21.964;2023-04-19T02:18:46;50966.63;;;-146.02;64.03
57000;BME280;42891;50.006;21.964;2023-04-19T02:22:47;50954.59;;;-146.02;64.22
57000;BME280;42891;50.006;21.964;2023-04-19T02:26:47;50950.59;;;-146.02;64.38
57000;BME280;42891;50.006;21.964;2023-04-19T02:30:47;50952.59;;;-146.02;64.43
57000;BME280;42891;50.006;21.964;2023-04-19T02:34:48;50936.56;;;-146.02;64.54
57000;BME280;42891;50.006;21.964;2023-04-19T02:38:48;50956.59;;;-146.02;64.37
57000;BME280;42891;50.006;21.964;2023-04-19T02:42:48;50916.53;;;-146.02;64.48
57000;BME280;42891;50.006;21.964;2023-04-19T02:46:52;50958.59;;;-146.02;64.46
57000;BME280;42891;50.006;21.964;2023-04-19T02:50:53;50930.56;;;-146.02;64.57
57000;BME280;42891;50.006;21.964;2023-04-19T02:54:53;50952.59;;;-146.02;64.59
57000;BME280;42891;50.006;21.964;2023-04-19T02:58:54;50948.59;;;-146.02;64.27
57000;BME280;42891;50.006;21.964;2023-04-19T03:02:55;50988.66;;;-146.02;64.42
57000;BME280;42891;50.006;21.964;2023-04-19T03:06:55;50944.59;;;-146.02;64.31
57000;BME280;42891;50.006;21.964;2023-04-19T03:10:57;50924.53;;;-146.02;64.33
57000;BME280;42891;50.006;21.964;2023-04-19T03:14:57;50926.53;;;-146.02;64.08
57000;BME280;42891;50.006;21.964;2023-04-19T03:18:57;50948.59;;;-146.02;64.48
57000;BME280;42891;50.006;21.964;2023-04-19T03:22:58;50904.50;;;-146.02;64.16
57000;BME280;42891;50.006;21.964;2023-04-19T03:26:58;51022.72;;;-146.02;64.00
57000;BME280;42891;50.006;21.964;2023-04-19T03:30:58;50952.59;;;-146.02;63.81
57000;BME280;42891;50.006;21.964;2023-04-19T03:34:59;50962.63;;;-146.02;63.74
57000;BME280;42891;50.006;21.964;2023-04-19T03:38:59;50964.63;;;-146.02;63.62
57000;BME280;42891;50.006;21.964;2023-04-19T03:43:01;50942.56;;;-146.02;63.22
57000;BME280;42891;50.006;21.964;2023-04-19T03:47:01;50960.59;;;-146.02;62.78
57000;BME280;42891;50.006;21.964;2023-04-19T03:51:02;50968.63;;;-146.02;62.82
57000;BME280;42891;50.006;21.964;2023-04-19T03:55:02;50980.66;;;-146.02;62.50
57000;BME280;42891;50.006;21.964;2023-04-19T03:59:03;50926.53;;;-146.02;62.97
57000;BME280;42891;50.006;21.964;2023-04-19T04:03:03;50958.59;;;-146.02;63.45
57000;BME280;42891;50.006;21.964;2023-04-19T04:07:04;50946.59;;;-146.02;63.39
57000;BME280;42891;50.006;21.964;2023-04-19T04:11:04;50906.50;;;-146.02;63.75
57000;BME280;42891;50.006;21.964;2023-04-19T04:15:05;50976.63;;;-146.02;64.10
57000;BME280;42891;50.006;21.964;2023-04-19T04:19:05;50942.56;;;-146.02;64.39
57000;BME280;42891;50.006;21.964;2023-04-19T04:23:06;50974.63;;;-146.02;64.75
57000;BME280;42891;50.006;21.964;2023-04-19T04:27:10;50954.59;;;-146.02;65.18
57000;BME280;42891;50.006;21.964;2023-04-19T04:31:10;50982.66;;;-146.02;65.32
57000;BME280;42891;50.006;21.964;2023-04-19T04:35:12;50946.59;;;-146.02;65.96
57000;BME280;42891;50.006;21.964;2023-04-19T04:39:12;50964.63;;;-146.02;66.09
57000;BME280;42891;50.006;21.964;2023-04-19T04:43:13;50946.59;;;-146.02;66.54
57000;BME280;42891;50.006;21.964;2023-04-19T04:47:13;50992.66;;;-146.02;67.19
57000;BME280;42891;50.006;21.964;2023-04-19T04:51:13;50968.63;;;-146.02;67.26
57000;BME280;42891;50.006;21.964;2023-04-19T04:55:14;50928.56;;;-146.02;68.34
57000;BME280;42891;50.006;21.964;2023-04-19T04:59:14;50976.63;;;-146.02;68.40
57000;BME280;42891;50.006;21.964;2023-04-19T05:03:14;50984.66;;;-146.02;70.21
57000;BME280;42891;50.006;21.964;2023-04-19T05:07:15;50964.63;;;-146.02;70.21
57000;BME280;42891;50.006;21.964;2023-04-19T05:11:16;50966.63;;;-146.02;70.68
57000;BME280;42891;50.006;21.964;2023-04-19T05:15:17;51004.69;;;-146.02;71.24
57000;BME280;42891;50.006;21.964;2023-04-19T05:19:17;50956.59;;;-146.02;70.90
57000;BME280;42891;50.006;21.964;2023-04-19T05:23:17;50978.66;;;-146.02;70.91
57000;BME280;42891;50.006;21.964;2023-04-19T05:27:18;50988.66;;;-146.02;70.64
57000;BME280;42891;50.006;21.964;2023-04-19T05:31:18;50992.66;;;-146.02;70.33
57000;BME280;42891;50.006;21.964;2023-04-19T05:35:20;51008.69;;;-146.02;70.21
57000;BME280;42891;50.006;21.964;2023-04-19T05:39:20;50992.66;;;-146.02;69.77
57000;BME280;42891;50.006;21.964;2023-04-19T05:43:21;50992.66;;;-146.02;70.22
57000;BME280;42891;50.006;21.964;2023-04-19T05:47:21;50964.63;;;-146.02;70.70
57000;BME280;42891;50.006;21.964;2023-04-19T05:51:22;50964.63;;;-146.02;69.73
57000;BME280;42891;50.006;21.964;2023-04-19T05:55:22;51002.69;;;-146.02;69.12
57000;BME280;42891;50.006;21.964;2023-04-19T05:59:22;50984.66;;;-146.02;69.08
57000;BME280;42891;50.006;21.964;2023-04-19T06:03:22;51004.69;;;-146.02;68.88
57000;BME280;42891;50.006;21.964;2023-04-19T06:07:23;50978.66;;;-146.02;69.08
57000;BME280;42891;50.006;21.964;2023-04-19T06:11:23;50968.63;;;-146.02;68.23
57000;BME280;42891;50.006;21.964;2023-04-19T06:15:24;51000.69;;;-146.02;67.35
57000;BME280;42891;50.006;21.964;2023-04-19T06:19:25;50994.69;;;-146.02;67.22
57000;BME280;42891;50.006;21.964;2023-04-19T06:23:25;51002.69;;;-146.02;67.13
57000;BME280;42891;50.006;21.964;2023-04-19T06:27:26;51018.72;;;-146.02;66.81
57000;BME280;42891;50.006;21.964;2023-04-19T06:31:26;50992.66;;;-146.02;67.38
57000;BME280;42891;50.006;21.964;2023-04-19T06:35:26;51014.72;;;-146.02;66.93
57000;BME280;42891;50.006;21.964;2023-04-19T06:39:27;50962.63;;;-146.02;66.49
57000;BME280;42891;50.006;21.964;2023-04-19T06:43:27;51000.69;;;-146.02;66.50
57000;BME280;42891;50.006;21.964;2023-04-19T06:47:28;50956.59;;;-146.02;66.94
57000;BME280;42891;50.006;21.964;2023-04-19T06:51:28;50948.59;;;-146.02;67.04
57000;BME280;42891;50.006;21.964;2023-04-19T06:55:29;51032.75;;;-146.02;66.80
57000;BME280;42891;50.006;21.964;2023-04-19T06:59:29;50992.66;;;-146.02;66.75
57000;BME280;42891;50.006;21.964;2023-04-19T07:03:31;50978.66;;;-146.02;66.94
57000;BME280;42891;50.006;21.964;2023-04-19T07:07:31;50984.66;;;-146.02;67.08
57000;BME280;42891;50.006;21.964;2023-04-19T07:11:32;50982.66;;;-146.02;67.42
57000;BME280;42891;50.006;21.964;2023-04-19T07:15:34;50980.66;;;-146.02;67.09
57000;BME280;42891;50.006;21.964;2023-04-19T07:19:34;51000.69;;;-146.02;67.17
57000;BME280;42891;50.006;21.964;2023-04-19T07:23:35;50990.66;;;-146.02;66.82
57000;BME280;42891;50.006;21.964;2023-04-19T07:27:35;50968.63;;;-146.02;66.46
57000;BME280;42891;50.006;21.964;2023-04-19T07:31:36;50988.66;;;-146.02;66.13
57000;BME280;42891;50.006;21.964;2023-04-19T07:35:38;50958.59;;;-146.02;65.95
57000;BME280;42891;50.006;21.964;2023-04-19T07:39:38;50974.63;;;-146.02;65.67
57000;BME280;42891;50.006;21.964;2023-04-19T07:43:39;50980.66;;;-146.02;66.35
57000;BME280;42891;50.006;21.964;2023-04-19T07:47:39;51002.69;;;-146.02;66.70
57000;BME280;42891;50.006;21.964;2023-04-19T07:51:39;50984.66;;;-146.02;66.59
57000;BME280;42891;50.006;21.964;2023-04-19T07:55:40;50962.63;;;-146.02;66.45
57000;BME280;42891;50.006;21.964;2023-04-19T07:59:40;50936.56;;;-146.02;66.50
57000;BME280;42891;50.006;21.964;2023-04-19T08:03:40;50952.59;;;-146.02;66.36
57000;BME280;42891;50.006;21.964;2023-04-19T08:07:42;51000.69;;;-146.02;66.95
57000;BME280;42891;50.006;21.964;2023-04-19T08:11:42;50978.66;;;-146.02;67.05
57000;BME280;42891;50.006;21.964;2023-04-19T08:15:43;50998.69;;;-146.02;67.64
57000;BME280;42891;50.006;21.964;2023-04-19T08:19:43;50958.59;;;-146.02;67.05
57000;BME280;42891;50.006;21.964;2023-04-19T08:23:44;50950.59;;;-146.02;66.94
57000;BME280;42891;50.006;21.964;2023-04-19T08:27:44;50982.66;;;-146.02;66.89
57000;BME280;42891;50.006;21.964;2023-04-19T08:31:45;50966.63;;;-146.02;66.59
57000;BME280;42891;50.006;21.964;2023-04-19T08:35:46;50956.59;;;-146.02;67.34
57000;BME280;42891;50.006;21.964;2023-04-19T08:39:46;50966.63;;;-146.02;66.60
57000;BME280;42891;50.006;21.964;2023-04-19T08:43:50;50952.59;;;-146.02;66.66
57000;BME280;42891;50.006;21.964;2023-04-19T08:47:51;50982.66;;;-146.02;66.72
57000;BME280;42891;50.006;21.964;2023-04-19T08:51:51;50938.56;;;-146.02;66.19
57000;BME280;42891;50.006;21.964;2023-04-19T08:55:52;50966.63;;;-146.02;66.31
57000;BME280;42891;50.006;21.964;2023-04-19T09:00:01;50954.59;;;-146.02;66.07
57000;BME280;42891;50.006;21.964;2023-04-19T09:04:06;50970.63;;;-146.02;65.97
57000;BME280;42891;50.006;21.964;2023-04-19T09:08:26;50974.63;;;-146.02;65.89
57000;BME280;42891;50.006;21.964;2023-04-19T09:12:27;50976.63;;;-146.02;65.49
57000;BME280;42891;50.006;21.964;2023-04-19T09:16:27;50998.69;;;-146.02;65.65
57000;BME280;42891;50.006;21.964;2023-04-19T09:20:38;50926.53;;;-146.02;65.70
57000;BME280;42891;50.006;21.964;2023-04-19T09:24:40;50998.69;;;-146.02;66.14
57000;BME280;42891;50.006;21.964;2023-04-19T09:28:54;50978.66;;;-146.02;66.28
57000;BME280;42891;50.006;21.964;2023-04-19T09:32:54;50968.63;;;-146.02;65.54
57000;BME280;42891;50.006;21.964;2023-04-19T09:36:55;50980.66;;;-146.02;65.16
57000;BME280;42891;50.006;21.964;2023-04-19T09:45:52;50962.63;;;-146.02;64.49
57000;BME280;42891;50.006;21.964;2023-04-19T09:50:08;50968.63;;;-146.02;64.73
57000;BME280;42891;50.006;21.964;2023-04-19T09:54:10;50964.63;;;-146.02;64.77
57000;BME280;42891;50.006;21.964;2023-04-19T09:58:11;50932.56;;;-146.02;64.51
57000;BME280;42891;50.006;21.964;2023-04-19T10:02:12;50924.53;;;-146.02;64.62
57000;BME280;42891;50.006;21.964;2023-04-19T10:06:15;50934.56;;;-146.02;64.23
57000;BME280;42891;50.006;21.964;2023-04-19T10:10:17;50998.69;;;-146.02;64.41
57000;BME280;42891;50.006;21.964;2023-04-19T10:14:22;50970.63;;;-146.02;64.27
57000;BME280;42891;50.006;21.964;2023-04-19T10:18:23;50968.63;;;-146.02;64.41
57000;BME280;42891;50.006;21.964;2023-04-19T10:22:24;50970.63;;;-146.02;63.83
57000;BME280;42891;50.006;21.964;2023-04-19T10:26:25;50974.63;;;-146.02;64.50
57000;BME280;42891;50.006;21.964;2023-04-19T10:30:26;50998.69;;;-146.02;63.20
57000;BME280;42891;50.006;21.964;2023-04-19T10:34:36;50978.66;;;-146.02;64.68
57000;BME280;42891;50.006;21.964;2023-04-19T10:38:49;50950.59;;;-146.02;64.32
57000;BME280;42891;50.006;21.964;2023-04-19T10:47:09;50988.66;;;-146.02;63.30
57000;BME280;42891;50.006;21.964;2023-04-19T10:51:15;50962.63;;;-146.02;64.30
57000;BME280;42891;50.006;21.964;2023-04-19T10:55:17;50976.63;;;-146.02;63.94
57000;BME280;42891;50.006;21.964;2023-04-19T10:59:19;50998.69;;;-146.02;63.10
57000;BME280;42891;50.006;21.964;2023-04-19T11:07:44;50972.63;;;-146.02;62.64
57000;BME280;42891;50.006;21.964;2023-04-19T11:11:44;50966.63;;;-146.02;62.95
57000;BME280;42891;50.006;21.964;2023-04-19T11:15:45;50978.66;;;-146.02;62.65
57000;BME280;42891;50.006;21.964;2023-04-19T11:19:56;50978.66;;;-146.02;61.46
57000;BME280;42891;50.006;21.964;2023-04-19T11:24:09;50954.59;;;-146.02;61.07
57000;BME280;42891;50.006;21.964;2023-04-19T11:28:10;50948.59;;;-146.02;60.05
57000;BME280;42891;50.006;21.964;2023-04-19T11:32:10;50946.59;;;-146.02;59.63
57000;BME280;42891;50.006;21.964;2023-04-19T11:36:11;50968.63;;;-146.02;59.21
57000;BME280;42891;50.006;21.964;2023-04-19T11:40:17;50938.56;;;-146.02;56.73
57000;BME280;42891;50.006;21.964;2023-04-19T11:44:18;50952.59;;;-146.02;55.07
57000;BME280;42891;50.006;21.964;2023-04-19T11:48:21;50938.56;;;-146.02;56.72
57000;BME280;42891;50.006;21.964;2023-04-19T11:52:24;50928.56;;;-146.02;56.63
57000;BME280;42891;50.006;21.964;2023-04-19T11:56:25;50920.53;;;-146.02;53.94
57000;BME280;42891;50.006;21.964;2023-04-19T12:00:26;50946.59;;;-146.02;54.76
57000;BME280;42891;50.006;21.964;2023-04-19T12:04:28;50924.53;;;-146.02;53.96
57000;BME280;42891;50.006;21.964;2023-04-19T12:08:33;50922.53;;;-146.02;53.86
57000;BME280;42891;50.006;21.964;2023-04-19T12:12:33;50870.44;;;-146.02;51.97
57000;BME280;42891;50.006;21.964;2023-04-19T12:16:33;50912.53;;;-146.02;53.54
57000;BME280;42891;50.006;21.964;2023-04-19T12:20:35;50902.50;;;-146.02;52.58
57000;BME280;42891;50.006;21.964;2023-04-19T12:24:37;50908.50;;;-146.02;52.49
57000;BME280;42891;50.006;21.964;2023-04-19T12:28:38;50886.47;;;-146.02;50.69
57000;BME280;42891;50.006;21.964;2023-04-19T12:32:38;50884.47;;;-146.02;48.53
57000;BME280;42891;50.006;21.964;2023-04-19T12:36:38;50912.53;;;-146.02;49.78
57000;BME280;42891;50.006;21.964;2023-04-19T12:40:39;50908.50;;;-146.02;49.04
57000;BME280;42891;50.006;21.964;2023-04-19T12:44:39;50916.53;;;-146.02;48.14
57000;BME280;42891;50.006;21.964;2023-04-19T12:48:40;50920.53;;;-146.02;50.09
57000;BME280;42891;50.006;21.964;2023-04-19T12:52:41;50872.44;;;-146.02;49.81
57000;BME280;42891;50.006;21.964;2023-04-19T12:56:42;50900.50;;;-146.02;50.77
57000;BME280;42891;50.006;21.964;2023-04-19T13:00:43;50908.50;;;-146.02;49.69
57000;BME280;42891;50.006;21.964;2023-04-19T13:04:43;50864.44;;;-146.02;49.65
57000;BME280;42891;50.006;21.964;2023-04-19T13:08:43;50926.53;;;-146.02;50.44
57000;BME280;42891;50.006;21.964;2023-04-19T13:12:44;50910.53;;;-146.02;51.47
57000;BME280;42891;50.006;21.964;2023-04-19T13:16:44;50914.53;;;-146.02;51.86
57000;BME280;42891;50.006;21.964;2023-04-19T13:20:45;50874.44;;;-146.02;53.40
57000;BME280;42891;50.006;21.964;2023-04-19T13:24:46;50928.56;;;-146.02;54.90
57000;BME280;42891;50.006;21.964;2023-04-19T13:28:46;50946.59;;;-146.02;56.31
57000;BME280;42891;50.006;21.964;2023-04-19T13:32:46;50912.53;;;-146.02;58.19
57000;BME280;42891;50.006;21.964;2023-04-19T13:36:47;50894.50;;;-146.02;58.67
57000;BME280;42891;50.006;21.964;2023-04-19T13:40:47;50938.56;;;-146.02;59.59
57000;BME280;42891;50.006;21.964;2023-04-19T13:44:48;50936.56;;;-146.02;61.48
57000;BME280;42891;50.006;21.964;2023-04-19T13:48:48;50912.53;;;-146.02;59.57
57000;BME280;42891;50.006;21.964;2023-04-19T13:52:48;50946.59;;;-146.02;59.54
57000;BME280;42891;50.006;21.964;2023-04-19T13:56:49;50928.56;;;-146.02;60.24
57000;BME280;42891;50.006;21.964;2023-04-19T14:00:50;50936.56;;;-146.02;59.94
57000;BME280;42891;50.006;21.964;2023-04-19T14:04:51;50934.56;;;-146.02;57.52
57000;BME280;42891;50.006;21.964;2023-04-19T14:08:51;50920.53;;;-146.02;59.56
57000;BME280;42891;50.006;21.964;2023-04-19T14:12:52;50932.56;;;-146.02;59.46
57000;BME280;42891;50.006;21.964;2023-04-19T14:16:52;50904.50;;;-146.02;58.82
57000;BME280;42891;50.006;21.964;2023-04-19T14:20:53;50946.59;;;-146.02;59.28
57000;BME280;42891;50.006;21.964;2023-04-19T14:24:54;50968.63;;;-146.02;60.37
57000;BME280;42891;50.006;21.964;2023-04-19T14:28:55;50940.56;;;-146.02;61.00
57000;BME280;42891;50.006;21.964;2023-04-19T14:32:55;50926.53;;;-146.02;61.20
57000;BME280;42891;50.006;21.964;2023-04-19T14:36:56;50976.63;;;-146.02;60.93
57000;BME280;42891;50.006;21.964;2023-04-19T14:40:56;50938.56;;;-146.02;60.32
57000;BME280;42891;50.006;21.964;2023-04-19T14:44:57;50920.53;;;-146.02;60.57
57000;BME280;42891;50.006;21.964;2023-04-19T14:48:57;50964.63;;;-146.02;60.19
57000;BME280;42891;50.006;21.964;2023-04-19T14:53:04;50944.59;;;-146.02;60.32
57000;BME280;42891;50.006;21.964;2023-04-19T14:57:05;50946.59;;;-146.02;60.26
57000;BME280;42891;50.006;21.964;2023-04-19T15:01:12;50926.53;;;-146.02;60.68
57000;BME280;42891;50.006;21.964;2023-04-19T15:05:12;50966.63;;;-146.02;61.29
57000;BME280;42891;50.006;21.964;2023-04-19T15:09:12;50934.56;;;-146.02;61.76
57000;BME280;42891;50.006;21.964;2023-04-19T15:13:13;50946.59;;;-146.02;61.64
57000;BME280;42891;50.006;21.964;2023-04-19T15:17:13;50948.59;;;-146.02;61.71
57000;BME280;42891;50.006;21.964;2023-04-19T15:21:13;50908.50;;;-146.02;61.39
57000;BME280;42891;50.006;21.964;2023-04-19T15:25:14;50932.56;;;-146.02;61.64
57000;BME280;42891;50.006;21.964;2023-04-19T15:29:14;50940.56;;;-146.02;61.98
57000;BME280;42891;50.006;21.964;2023-04-19T15:33:15;50936.56;;;-146.02;62.05
57000;BME280;42891;50.006;21.964;2023-04-19T15:37:15;50950.59;;;-146.02;62.50
57000;BME280;42891;50.006;21.964;2023-04-19T15:41:15;50954.59;;;-146.02;62.43
57000;BME280;42891;50.006;21.964;2023-04-19T15:45:16;50944.59;;;-146.02;62.21
57000;BME280;42891;50.006;21.964;2023-04-19T15:49:16;50914.53;;;-146.02;62.04
57000;BME280;42891;50.006;21.964;2023-04-19T15:53:16;50940.56;;;-146.02;62.50
57000;BME280;42891;50.006;21.964;2023-04-19T15:57:17;50930.56;;;-146.02;62.70
57000;BME280;42891;50.006;21.964;2023-04-19T16:01:17;50960.59;;;-146.02;62.66
57000;BME280;42891;50.006;21.964;2023-04-19T16:05:18;50938.56;;;-146.02;62.75
57000;BME280;42891;50.006;21.964;2023-04-19T16:09:18;50952.59;;;-146.02;62.80
57000;BME280;42891;50.006;21.964;2023-04-19T16:13:19;50922.53;;;-146.02;63.36
57000;BME280;42891;50.006;21.964;2023-04-19T16:17:19;50942.56;;;-146.02;63.63
57000;BME280;42891;50.006;21.964;2023-04-19T16:21:20;50964.63;;;-146.02;63.25
57000;BME280;42891;50.006;21.964;2023-04-19T16:25:20;50930.56;;;-146.02;63.81
57000;BME280;42891;50.006;21.964;2023-04-19T16:29:20;50952.59;;;-146.02;63.94
57000;BME280;42891;50.006;21.964;2023-04-19T16:33:21;50950.59;;;-146.02;64.48
57000;BME280;42891;50.006;21.964;2023-04-19T16:37:21;50962.63;;;-146.02;64.41
57000;BME280;42891;50.006;21.964;2023-04-19T16:41:21;50916.53;;;-146.02;64.62
57000;BME280;42891;50.006;21.964;2023-04-19T16:45:23;50982.66;;;-146.02;64.57
57000;BME280;42891;50.006;21.964;2023-04-19T16:49:23;50940.56;;;-146.02;64.75
57000;BME280;42891;50.006;21.964;2023-04-19T16:53:24;50926.53;;;-146.02;65.26
57000;BME280;42891;50.006;21.964;2023-04-19T16:57:25;50932.56;;;-146.02;65.18
57000;BME280;42891;50.006;21.964;2023-04-19T17:01:25;50962.63;;;-146.02;65.08
57000;BME280;42891;50.006;21.964;2023-04-19T17:05:26;50950.59;;;-146.02;64.84
57000;BME280;42891;50.006;21.964;2023-04-19T17:09:26;50936.56;;;-146.02;64.79
57000;BME280;42891;50.006;21.964;2023-04-19T17:13:26;50956.59;;;-146.02;64.90
57000;BME280;42891;50.006;21.964;2023-04-19T17:17:27;50976.63;;;-146.02;65.21
57000;BME280;42891;50.006;21.964;2023-04-19T17:21:27;50944.59;;;-146.02;65.51
57000;BME280;42891;50.006;21.964;2023-04-19T17:25:27;50970.63;;;-146.02;65.98
57000;BME280;42891;50.006;21.964;2023-04-19T17:29:28;50996.69;;;-146.02;66.38
57000;BME280;42891;50.006;21.964;2023-04-19T17:33:28;50974.63;;;-146.02;66.68
57000;BME280;42891;50.006;21.964;2023-04-19T17:37:29;50964.63;;;-146.02;66.72
57000;BME280;42891;50.006;21.964;2023-04-19T17:41:29;50980.66;;;-146.02;67.40
57000;BME280;42891;50.006;21.964;2023-04-19T17:45:30;50968.63;;;-146.02;67.32
57000;BME280;42891;50.006;21.964;2023-04-19T17:49:30;50966.63;;;-146.02;67.48
57000;BME280;42891;50.006;21.964;2023-04-19T17:53:30;50964.63;;;-146.02;67.39
57000;BME280;42891;50.006;21.964;2023-04-19T17:57:31;50960.59;;;-146.02;67.32
57000;BME280;42891;50.006;21.964;2023-04-19T18:01:33;51004.69;;;-146.02;67.33
57000;BME280;42891;50.006;21.964;2023-04-19T18:05:34;50964.63;;;-146.02;67.27
57000;BME280;42891;50.006;21.964;2023-04-19T18:09:34;50986.66;;;-146.02;67.18
57000;BME280;42891;50.006;21.964;2023-04-19T18:13:34;50960.59;;;-146.02;67.42
57000;BME280;42891;50.006;21.964;2023-04-19T18:17:35;50994.69;;;-146.02;67.79
57000;BME280;42891;50.006;21.964;2023-04-19T18:21:35;50958.59;;;-146.02;67.57
57000;BME280;42891;50.006;21.964;2023-04-19T18:25:36;50958.59;;;-146.02;67.71
57000;BME280;42891;50.006;21.964;2023-04-19T18:29:36;50948.59;;;-146.02;66.96
57000;BME280;42891;50.006;21.964;2023-04-19T18:33:36;50990.66;;;-146.02;66.51
57000;BME280;42891;50.006;21.964;2023-04-19T18:37:37;50962.63;;;-146.02;65.98
57000;BME280;42891;50.006;21.964;2023-04-19T18:41:38;50982.66;;;-146.02;65.94
57000;BME280;42891;50.006;21.964;2023-04-19T18:45:38;51002.69;;;-146.02;65.62
57000;BME280;42891;50.006;21.964;2023-04-19T18:49:38;50954.59;;;-146.02;64.99
57000;BME280;42891;50.006;21.964;2023-04-19T18:53:39;50960.59;;;-146.02;64.61
57000;BME280;42891;50.006;21.964;2023-04-19T18:57:40;50974.63;;;-146.02;63.14
57000;BME280;42891;50.006;21.964;2023-04-19T19:01:40;50958.59;;;-146.02;62.92
57000;BME280;42891;50.006;21.964;2023-04-19T19:05:40;50960.59;;;-146.02;62.72
57000;BME280;42891;50.006;21.964;2023-04-19T19:09:41;50956.59;;;-146.02;62.20
57000;BME280;42891;50.006;21.964;2023-04-19T19:13:41;50974.63;;;-146.02;61.90
57000;BME280;42891;50.006;21.964;2023-04-19T19:17:41;51002.69;;;-146.02;61.24
57000;BME280;42891;50.006;21.964;2023-04-19T19:21:42;50960.59;;;-146.02;61.28
57000;BME280;42891;50.006;21.964;2023-04-19T19:25:42;50992.66;;;-146.02;60.80
57000;BME280;42891;50.006;21.964;2023-04-19T19:29:43;50942.56;;;-146.02;60.13
57000;BME280;42891;50.006;21.964;2023-04-19T19:33:43;50992.66;;;-146.02;60.04
57000;BME280;42891;50.006;21.964;2023-04-19T19:37:43;50986.66;;;-146.02;59.73
57000;BME280;42891;50.006;21.964;2023-04-19T19:41:44;50956.59;;;-146.02;59.58
57000;BME280;42891;50.006;21.964;2023-04-19T19:45:44;50956.59;;;-146.02;59.93
57000;BME280;42891;50.006;21.964;2023-04-19T19:49:45;50966.63;;;-146.02;59.82
57000;BME280;42891;50.006;21.964;2023-04-19T19:53:45;50970.63;;;-146.02;59.66
57000;BME280;42891;50.006;21.964;2023-04-19T19:57:45;50976.63;;;-146.02;59.63
57000;BME280;42891;50.006;21.964;2023-04-19T20:01:46;50948.59;;;-146.02;59.70
57000;BME280;42891;50.006;21.964;2023-04-19T20:05:46;50948.59;;;-146.02;59.54
57000;BME280;42891;50.006;21.964;2023-04-19T20:09:46;50990.66;;;-146.02;59.72
57000;BME280;42891;50.006;21.964;2023-04-19T20:13:47;50976.63;;;-146.02;59.53
57000;BME280;42891;50.006;21.964;2023-04-19T20:17:47;50982.66;;;-146.02;60.15
57000;BME280;42891;50.006;21.964;2023-04-19T20:21:47;50968.63;;;-146.02;60.35
57000;BME280;42891;50.006;21.964;2023-04-19T20:25:48;50944.59;;;-146.02;60.21
57000;BME280;42891;50.006;21.964;2023-04-19T20:29:48;50960.59;;;-146.02;60.26
57000;BME280;42891;50.006;21.964;2023-04-19T20:33:48;50994.69;;;-146.02;59.50
57000;BME280;42891;50.006;21.964;2023-04-19T20:37:49;50982.66;;;-146.02;59.97
57000;BME280;42891;50.006;21.964;2023-04-19T20:41:50;50966.63;;;-146.02;60.23